Переход р. Верхняя Ерга

СКИДКИ НА СМАРТФОНЫ!

Карта отелей и гостиниц, располагающихся рядом с аэропортом Переход р. Верхняя Ерга :

Переход р. Верхняя Ерга Вологодская область 60° 44' 1.644" N, 45° 24' 29.592" E
Код аэродрома ИКАО
HE8V
Код аэродрома RU
ХЕ8Ж
Координаты
N60.73379° E045.40822°
Превышение над уровнем моря
125
Основная полоса
Курс магнитный
Длина основной ВПП
20
Ширина основной ВПП
20
Покрытие основной ВПП
Твёрдое (бетон)
Освещение ВПП
Нет
Тип: 
Вертодром
Класс аэродрома: 
Принадлежность: 
ГА
Статус: 
Действующий
Сайт: 
E-mail аэродрома: 
Страна: 
Россия
Регион: 
Вологодская область
Город: 
Дополнительная информация: 
Используется вертолетами "Газпромавиа" и МАРЗ.

Скидки на навигаторы!

Найти трансфер

С помощью этой формы Вы можете найти трансфер из аэропорта Переход р. Верхняя Ерга в город, аэропорт или вокзал:

Погода в аэропортах:

Авиационная погода в Череповце

Регион: 
Погода METAR: 
ULWC 091530Z 04003MPS 9999 TS SCT026CB 19/12 Q1023 R21/010063 NOSIG RMK QFE757/1010
Время наблюдения
2022-08-09T15:30:00Z
Температура C
19.0
Точка росы
12.0
Направление ветра
40
Скорость ветра (узлы)
6
Метео видимость
6.21
Облачность
SCT
Нижняя граница облачности (футы)
2600
Явления погоды
TS
Условия полета
VFR
Аэропорт подробнее: 
SCT – разбросанная отдельная облачность;

Авиационная погода в Вадсё

Регион: 
Погода METAR: 
ENVD 091520Z 28005KT 250V300 9999 VCSH SCT049 BKN110 14/10 Q1016
Время наблюдения
2022-08-09T15:20:00Z
Температура C
14.0
Точка росы
10.0
Направление ветра
280
Скорость ветра (узлы)
5
Метео видимость
6.21
Облачность
SCT
BKN
Нижняя граница облачности (футы)
4900
11000
Явления погоды
VCSH
Условия полета
VFR
SCT – разбросанная отдельная облачность; BKN – значительная (рассеянная, разорванная) облачность;

Авиационная погода в Яссах

Регион: 
Погода METAR: 
LRIA 091530Z 35015KT 320V020 9999 VCSH SCT033CB 26/17 Q1019
Время наблюдения
2022-08-09T15:30:00Z
Температура C
26.0
Точка росы
17.0
Направление ветра
350
Скорость ветра (узлы)
15
Метео видимость
6.21
Облачность
SCT
Нижняя граница облачности (футы)
3300
Явления погоды
VCSH
Условия полета
VFR
SCT – разбросанная отдельная облачность;

Авиационная погода в аэропорту Семей

Регион: 
Погода METAR: 
UASS 091130Z 31004MPS 280V350 9999 -SHRA SCT040CB 24/14 Q1005 NOSIG RMK QFE735/0981
Время наблюдения
2022-08-09T11:30:00Z
Температура C
24.0
Точка росы
14.0
Направление ветра
310
Скорость ветра (узлы)
8
Метео видимость
6.21
Облачность
SCT
Нижняя граница облачности (футы)
4000
Явления погоды
-SHRA
Условия полета
VFR
Аэропорт подробнее: 
SCT – разбросанная отдельная облачность;
-SHRA - слабый ливневой дождь;